Glasgow, MT

11:08 PM MDT on August 25, 2016 (GMT -0600)
APRSWXNET | | Change Station

Elev 2211 ft 48.19 °N, 106.61 °W | Updated 43 minutes ago

Scattered Clouds
Scattered Clouds
57 °F
Feels Like 57 °F
N
0
Wind Variable Wind from North
Gusts 3.0 mph

Today
High -- | Low -- °F
--% Chance of Precip.
Yesterday
High -- | Low -- °F
Precip. -- in
Pressure 30.10 in
Visibility 10.0 miles
Clouds Scattered Clouds 11000 ft
Dew Point 42 °F
Humidity 58%
Rainfall in
Snow Depth Not available.
6:14 AM 7:59 PM
Last Quarter, 38% visible
METAR KGGW 260453Z AUTO 19007KT 10SM SCT110 14/06 A3010 RMK AO2 SLP193 T01390061
Pressure 30.10 in
Visibility 10.0 miles
Clouds Scattered Clouds 11000 ft
Dew Point 42 °F
Humidity 58%
Rainfall in
Snow Depth Not available.
6:14 AM 7:59 PM
Last Quarter, 38% visible
METAR KGGW 260453Z AUTO 19007KT 10SM SCT110 14/06 A3010 RMK AO2 SLP193 T01390061
A tropical disturbance pushing toward the Bahamas, is expected to develop into a tropical depression or storm, and will likely target Florida and the Gulf Coast this weekend into next week.

Right now, the disturbance remains a broad area of low pressure pushing through the Dominican Republic and Haiti, headed toward the southeast Bahamas. Rainfall totals over 3 inches (with locally higher amounts) are expected in HispaƱiola, particularly over elevated terrain.

10-Day Weather Forecast

Almanac

Astronomy

Aug. 25, 2016 Rise Set
Actual Time
Civil Twilight
Nautical Twilight
Astronomical Twilight
Moon
Length of Visible Light
Length of Day
Tomorrow will be .
, % of the Moon is Illuminated

Today's Extremes

State Highs State Lows

Community

WunderPhotos

Upload Photos

1,935,057 photos uploaded!

WunderBlog® & News

Nearby

Air Quality

  Air Quality AQ Index Pollutant
Not available.

Snow Depth

Station Depth Elevation

Earthquake Activity

City Distance Mag. Time & Date
Minimum magnitude displayed is 2.5.

Coastal Water Temperatures

Place Temperature

Stations

Nearby Weather Stations

Station Location Temp. Windchill Dew Point Humidity Wind Precip. Elev Updated Type
                   

Watches & Warnings

There are currently no watches in effect.